Time;durP1;ratioP1;P1;durP2;ratioP2;P2;SDS_P1;SDS_P2;PMS_P1;PMS_P2;Temp;Humidity;BMP_temperature;BMP_pressure;BME280_temperature;BME280_humidity;BME280_pressure;Samples;Min_cycle;Max_cycle;Signal;HPM_P1;HPM_P2
2022/01/03 07:06:02;;;;;;;;;;;;;;;5.91;100.00;98696.72;5168081;23;20257;-67
2022/01/03 07:08:29;;;;;;;;;;;;;;;5.97;100.00;98708.38;4883526;29;19955;-68
2022/01/03 07:10:57;;;;;;;;;;;;;;;5.62;100.00;98686.84;4883321;29;19962;-68
2022/01/03 07:13:27;;;;;;;;;;;;;;;5.14;100.00;98681.50;4883535;29;19970;-68
2022/01/03 07:19:00;;;;;;;;;;;;;;;5.31;100.00;98683.97;4883782;29;19958;-68
2022/01/03 07:21:28;;;;;;;;;;;;;;;5.39;100.00;98684.97;4883444;29;19949;-68
2022/01/03 07:23:56;;;;;;;;;;;;;;;5.54;100.00;98685.00;4883248;29;20349;-68
2022/01/03 07:26:24;;;;;;;;;;;;;;;5.60;100.00;98680.81;4872088;29;19970;-68
2022/01/03 07:28:52;;;;;;;;;;;;;;;5.48;100.00;98691.19;4870868;29;20243;-68
2022/01/03 07:31:19;;;;;;;;;;;;;;;5.36;100.00;98694.81;4867702;29;19958;-68
2022/01/03 07:33:47;;;;;;;;;;;;;;;5.33;100.00;98693.53;4876105;29;20261;-68
2022/01/03 07:36:15;;;;;;;;;;;;;;;5.32;100.00;98691.94;4880627;29;19974;-68
2022/01/03 07:38:46;;;;;;;;;;;;;;;5.34;100.00;98691.59;4897325;29;19964;-68
2022/01/03 07:41:15;;;;;;;;;;;;;;;5.58;100.00;98696.19;4876796;29;19969;-68
2022/01/03 07:43:43;;;;;;;;;;;;;;;5.97;100.00;98697.28;4873447;29;19992;-68
2022/01/03 07:46:11;;;;;;;;;;;;;;;5.88;100.00;98702.97;4892249;29;19949;-68
2022/01/03 07:48:40;;;;;;;;;;;;;;;6.33;100.00;98697.75;4900580;29;19953;-68
2022/01/03 07:51:08;;;;;;;;;;;;;;;7.23;100.00;98682.72;4882543;29;20352;-68
2022/01/03 07:53:35;;;;;;;;;;;;;;;8.14;100.00;98686.41;4880110;29;19967;-68
2022/01/03 07:56:05;;;;;;;;;;;;;;;9.22;100.00;98685.63;4899267;29;19957;-69
2022/01/03 07:58:32;;;;;;;;;;;;;;;9.51;100.00;98684.00;4885726;29;19952;-69
2022/01/03 08:00:59;;;;;;;;;;;;;;;10.36;100.00;98680.06;4897771;29;20426;-69
2022/01/03 08:03:27;;;;;;;;;;;;;;;10.76;100.00;98681.97;4886377;29;19947;-68
2022/01/03 08:06:04;;;;;;;;;;;;;;;10.59;100.00;98669.44;4891421;29;19975;-68
2022/01/03 08:08:31;;;;;;;;;;;;;;;9.68;100.00;98675.78;4898279;29;19963;-68
2022/01/03 08:10:58;;;;;;;;;;;;;;;9.31;100.00;98686.16;4880959;29;19953;-69
2022/01/03 08:13:26;;;;;;;;;;;;;;;7.88;100.00;98711.38;4864505;29;20000;-68
2022/01/03 08:15:53;;;;;;;;;;;;;;;6.43;100.00;98713.88;4881599;29;20362;-68
2022/01/03 08:18:20;;;;;;;;;;;;;;;5.81;100.00;98700.81;4881111;29;19953;-68
2022/01/03 08:20:49;;;;;;;;;;;;;;;5.40;100.00;98723.47;4895791;29;19960;-68
2022/01/03 08:23:17;;;;;;;;;;;;;;;4.80;100.00;98749.38;4897309;29;19948;-68
2022/01/03 08:25:44;;;;;;;;;;;;;;;4.44;100.00;98752.19;4883778;29;19948;-68
2022/01/03 08:28:12;;;;;;;;;;;;;;;4.07;100.00;98748.59;4884880;29;19959;-68
2022/01/03 08:30:39;;;;;;;;;;;;;;;3.88;100.00;98754.69;4879999;29;19957;-68
2022/01/03 08:33:06;;;;;;;;;;;;;;;3.65;100.00;98759.00;4879771;29;20352;-68
2022/01/03 08:35:34;;;;;;;;;;;;;;;3.53;100.00;98756.22;4879761;29;21235;-68
2022/01/03 08:38:04;;;;;;;;;;;;;;;3.30;100.00;98750.25;4896996;29;19967;-68
2022/01/03 08:40:31;;;;;;;;;;;;;;;3.18;100.00;98764.00;4882680;29;19949;-68
2022/01/03 08:42:59;;;;;;;;;;;;;;;3.11;100.00;98763.75;4883496;29;19956;-68
2022/01/03 08:45:27;;;;;;;;;;;;;;;3.22;100.00;98767.72;4898378;29;19956;-68
2022/01/03 08:47:54;;;;;;;;;;;;;;;3.25;100.00;98744.91;4885045;29;20349;-68
2022/01/03 08:50:21;;;;;;;;;;;;;;;3.22;100.00;98744.81;4876446;29;19958;-68
2022/01/03 08:52:49;;;;;;;;;;;;;;;3.26;100.00;98757.59;4880829;29;19948;-68
2022/01/03 08:55:16;;;;;;;;;;;;;;;3.38;100.00;98776.19;4886711;29;19969;-68
2022/01/03 08:57:47;;;;;;;;;;;;;;;3.68;100.00;98777.69;4892997;29;19955;-68
2022/01/03 09:00:16;;;;;;;;;;;;;;;3.91;100.00;98784.44;4879585;29;19947;-68
2022/01/03 09:02:44;;;;;;;;;;;;;;;4.21;100.00;98793.34;4892726;29;19957;-69
2022/01/03 09:05:12;;;;;;;;;;;;;;;4.38;100.00;98784.84;4879253;29;19991;-68
2022/01/03 09:07:39;;;;;;;;;;;;;;;4.58;100.00;98786.69;4887730;29;19963;-68
2022/01/03 09:10:07;;;;;;;;;;;;;;;4.71;100.00;98783.91;4888525;29;19958;-68
2022/01/03 09:12:34;;;;;;;;;;;;;;;5.08;100.00;98788.25;4880112;29;19960;-69
2022/01/03 09:15:02;;;;;;;;;;;;;;;5.22;100.00;98777.59;4886846;29;19973;-68
2022/01/03 09:17:30;;;;;;;;;;;;;;;5.48;100.00;98780.72;4879502;29;19952;-68
2022/01/03 09:19:57;;;;;;;;;;;;;;;5.73;100.00;98798.06;4888022;29;19956;-68
2022/01/03 09:22:31;;;;;;;;;;;;;;;5.97;100.00;98809.91;4893995;29;19961;-68
2022/01/03 09:30:42;;;;;;;;;;;;;;;6.10;100.00;98802.31;4881010;29;19957;-68
2022/01/03 09:33:09;;;;;;;;;;;;;;;6.21;100.00;98785.94;4877669;29;19955;-69
2022/01/03 09:35:37;;;;;;;;;;;;;;;6.35;100.00;98787.09;4886570;29;19975;-68
2022/01/03 09:38:06;;;;;;;;;;;;;;;6.36;100.00;98799.00;4884540;29;19967;-68
2022/01/03 09:40:34;;;;;;;;;;;;;;;6.51;100.00;98807.34;4884713;29;19984;-68
2022/01/03 09:43:02;;;;;;;;;;;;;;;6.45;100.00;98805.22;4891655;29;19981;-69
2022/01/03 09:45:34;;;;;;;;;;;;;;;6.32;100.00;98803.66;4886385;29;19969;-68
2022/01/03 09:48:03;;;;;;;;;;;;;;;6.09;100.00;98791.56;4874662;29;19956;-68
2022/01/03 09:50:31;;;;;;;;;;;;;;;6.22;100.00;98793.91;4889219;29;20342;-68
2022/01/03 09:53:01;;;;;;;;;;;;;;;6.35;100.00;98792.66;4898267;29;19951;-68
2022/01/03 09:55:29;;;;;;;;;;;;;;;6.41;100.00;98794.00;4899210;29;19970;-68
2022/01/03 09:57:57;;;;;;;;;;;;;;;6.49;100.00;98795.78;4898876;29;19959;-68
2022/01/03 10:00:24;;;;;;;;;;;;;;;6.51;100.00;98803.75;4899218;29;19949;-68
2022/01/03 10:02:52;;;;;;;;;;;;;;;6.49;100.00;98806.09;4898487;29;19959;-68
2022/01/03 10:05:20;;;;;;;;;;;;;;;6.56;100.00;98811.81;4891529;29;19972;-68
2022/01/03 10:07:48;;;;;;;;;;;;;;;6.56;100.00;98817.38;4891987;29;19962;-68
2022/01/03 10:10:16;;;;;;;;;;;;;;;6.63;100.00;98819.56;4892229;29;20246;-68
2022/01/03 10:12:43;;;;;;;;;;;;;;;6.64;100.00;98813.63;4883859;29;19988;-68
2022/01/03 10:15:11;;;;;;;;;;;;;;;6.71;100.00;98813.78;4895600;29;19968;-68
2022/01/03 10:17:41;;;;;;;;;;;;;;;6.64;100.00;98799.72;4886331;29;19957;-68
2022/01/03 10:20:10;;;;;;;;;;;;;;;6.59;100.00;98805.56;4884772;29;20218;-68
2022/01/03 10:22:39;;;;;;;;;;;;;;;6.64;100.00;98794.16;4895359;29;19950;-68
2022/01/03 10:25:11;;;;;;;;;;;;;;;6.63;100.00;98792.53;4885585;29;19955;-68
2022/01/03 10:27:51;;;;;;;;;;;;;;;6.63;100.00;98798.09;4885363;29;19954;-68
2022/01/03 10:30:34;;;;;;;;;;;;;;;6.63;100.00;98784.22;4895924;29;19950;-68
2022/01/03 10:33:03;;;;;;;;;;;;;;;6.68;100.00;98769.22;4886447;29;19958;-68
2022/01/03 10:35:35;;;;;;;;;;;;;;;6.89;100.00;98778.09;4883281;29;19969;-68
2022/01/03 10:38:03;;;;;;;;;;;;;;;6.96;100.00;98761.56;4893805;29;19953;-68
2022/01/03 10:40:31;;;;;;;;;;;;;;;7.00;100.00;98754.91;4883965;29;20362;-68
2022/01/03 10:43:12;;;;;;;;;;;;;;;7.09;100.00;98761.06;4882606;29;19949;-68
2022/01/03 10:45:40;;;;;;;;;;;;;;;7.23;100.00;98758.63;4888179;29;19954;-68
2022/01/03 10:48:28;;;;;;;;;;;;;;;7.32;100.00;98757.56;4882473;29;19952;-68
2022/01/03 10:50:56;;;;;;;;;;;;;;;7.41;100.00;98745.06;4884164;29;19949;-68
2022/01/03 10:53:40;;;;;;;;;;;;;;;7.52;100.00;98740.53;4886129;29;19958;-68
2022/01/03 10:56:27;;;;;;;;;;;;;;;7.68;100.00;98738.47;4883835;29;19975;-68
2022/01/03 10:59:21;;;;;;;;;;;;;;;7.74;100.00;98725.06;4885234;29;20372;-68
2022/01/03 11:01:50;;;;;;;;;;;;;;;7.80;100.00;98724.38;4887244;29;19976;-68
2022/01/03 11:04:25;;;;;;;;;;;;;;;8.09;100.00;98703.44;4885392;29;19955;-68
2022/01/03 11:13:22;;;;;;;;;;;;;;;8.45;100.00;98708.44;4879755;29;19951;-68
2022/01/03 11:15:51;;;;;;;;;;;;;;;8.59;100.00;98699.50;4861919;29;19981;-68
2022/01/03 11:18:21;;;;;;;;;;;;;;;8.56;100.00;98692.69;4867150;29;19959;-68
2022/01/03 11:20:50;;;;;;;;;;;;;;;8.63;100.00;98696.75;4889754;29;19952;-68
2022/01/03 11:23:19;;;;;;;;;;;;;;;8.68;100.00;98696.44;4880943;29;19951;-68
2022/01/03 11:25:47;;;;;;;;;;;;;;;8.68;100.00;98696.44;4882624;29;19949;-68
2022/01/03 11:28:14;;;;;;;;;;;;;;;8.72;100.00;98691.72;4886079;29;19950;-68
2022/01/03 11:30:42;;;;;;;;;;;;;;;8.70;100.00;98677.34;4886127;29;19958;-68
2022/01/03 11:33:10;;;;;;;;;;;;;;;8.78;100.00;98679.06;4886644;29;20346;-68
2022/01/03 11:35:38;;;;;;;;;;;;;;;8.98;100.00;98659.03;4881578;29;20190;-68
2022/01/03 11:38:06;;;;;;;;;;;;;;;9.03;100.00;98669.03;4879877;29;20244;-68
2022/01/03 11:40:34;;;;;;;;;;;;;;;8.78;100.00;98660.34;4888036;29;20259;-68
2022/01/03 11:43:02;;;;;;;;;;;;;;;9.04;100.00;98648.34;4880318;29;19949;-68
2022/01/03 11:45:29;;;;;;;;;;;;;;;9.18;100.00;98629.78;4880417;29;19956;-68
2022/01/03 11:47:57;;;;;;;;;;;;;;;9.30;100.00;98641.88;4882590;29;19960;-69
2022/01/03 11:50:25;;;;;;;;;;;;;;;9.33;100.00;98639.13;4887575;29;19961;-69
2022/01/03 11:52:53;;;;;;;;;;;;;;;9.42;100.00;98631.25;4881841;29;19954;-69
2022/01/03 11:55:22;;;;;;;;;;;;;;;9.44;100.00;98634.47;4882733;29;19976;-68
2022/01/03 12:03:54;;;;;;;;;;;;;;;9.10;100.00;98652.38;4886093;29;19949;-68
2022/01/03 12:06:22;;;;;;;;;;;;;;;9.13;100.00;98637.69;4882366;29;20005;-69
2022/01/03 12:08:54;;;;;;;;;;;;;;;9.07;100.00;98644.81;4881200;29;19968;-69
2022/01/03 12:11:22;;;;;;;;;;;;;;;8.59;100.00;98641.75;4895563;29;19950;-68
2022/01/03 12:13:50;;;;;;;;;;;;;;;8.39;100.00;98648.63;4895606;29;19958;-68
2022/01/03 12:16:18;;;;;;;;;;;;;;;8.09;100.00;98653.31;4879004;29;19970;-68
2022/01/03 12:18:58;;;;;;;;;;;;;;;8.08;100.00;98643.31;4883934;29;19953;-68
2022/01/03 12:21:44;;;;;;;;;;;;;;;8.08;100.00;98653.66;4886113;29;20012;-68
2022/01/03 12:24:27;;;;;;;;;;;;;;;7.73;100.00;98651.06;4886689;29;20383;-68
2022/01/03 12:27:10;;;;;;;;;;;;;;;7.55;100.00;98641.59;4876508;29;19954;-68
2022/01/03 12:29:58;;;;;;;;;;;;;;;7.62;100.00;98642.53;4879229;29;19959;-68
2022/01/03 12:32:35;;;;;;;;;;;;;;;7.34;100.00;98633.63;4879825;29;19959;-68
2022/01/03 12:35:06;;;;;;;;;;;;;;;6.99;100.00;98633.75;4889596;29;20375;-68
2022/01/03 12:37:34;;;;;;;;;;;;;;;7.06;100.00;98631.13;4880398;29;19952;-68
2022/01/03 12:40:02;;;;;;;;;;;;;;;7.03;100.00;98608.81;4880677;29;20043;-69
2022/01/03 12:45:17;;;;;;;;;;;;;;;7.00;100.00;98604.78;4879280;29;20013;-68
2022/01/03 12:47:45;;;;;;;;;;;;;;;7.01;100.00;98595.28;4877888;29;19960;-69
2022/01/03 12:50:19;;;;;;;;;;;;;;;7.00;100.00;98596.44;4880520;29;19965;-68
2022/01/03 12:52:47;;;;;;;;;;;;;;;7.07;100.00;98590.19;4887884;29;19960;-68
2022/01/03 12:55:46;;;;;;;;;;;;;;;7.05;100.00;98582.25;4897813;29;19981;-68
2022/01/03 12:58:14;;;;;;;;;;;;;;;6.99;100.00;98560.69;4862756;29;19959;-68
2022/01/03 13:00:45;;;;;;;;;;;;;;;6.94;100.00;98545.09;4884814;29;19962;-68
2022/01/03 13:03:18;;;;;;;;;;;;;;;7.06;100.00;98538.56;4886920;29;19957;-68
2022/01/03 13:06:04;;;;;;;;;;;;;;;6.82;100.00;98542.47;4886971;29;20272;-68
2022/01/03 13:08:32;;;;;;;;;;;;;;;6.89;100.00;98550.97;4878698;29;20327;-68
2022/01/03 13:11:08;;;;;;;;;;;;;;;7.02;100.00;98552.38;4879450;29;19959;-68
2022/01/03 13:13:36;;;;;;;;;;;;;;;6.90;100.00;98555.31;4874384;29;19959;-68
2022/01/03 13:16:23;;;;;;;;;;;;;;;6.96;100.00;98561.41;4879388;29;19974;-68
2022/01/03 13:18:53;;;;;;;;;;;;;;;7.10;100.00;98558.88;4893333;29;19949;-68
2022/01/03 13:21:21;;;;;;;;;;;;;;;7.25;100.00;98547.66;4881112;29;19952;-68
2022/01/03 13:23:52;;;;;;;;;;;;;;;7.31;100.00;98550.16;4884435;29;19983;-68
2022/01/03 13:26:20;;;;;;;;;;;;;;;7.33;100.00;98559.72;4876186;29;20341;-68
2022/01/03 13:28:49;;;;;;;;;;;;;;;7.36;100.00;98552.63;4883284;29;19961;-68
2022/01/03 13:31:16;;;;;;;;;;;;;;;7.22;100.00;98550.38;4881670;29;19949;-68
2022/01/03 13:33:44;;;;;;;;;;;;;;;7.28;100.00;98562.81;4885015;29;19957;-68
2022/01/03 13:36:15;;;;;;;;;;;;;;;7.27;100.00;98558.41;4880562;29;19975;-68
2022/01/03 13:38:42;;;;;;;;;;;;;;;7.28;100.00;98558.06;4875515;29;19981;-68
2022/01/03 13:41:13;;;;;;;;;;;;;;;7.31;100.00;98561.28;4882805;29;19962;-68
2022/01/03 13:43:46;;;;;;;;;;;;;;;7.11;100.00;98554.94;4881785;29;19955;-68
2022/01/03 13:49:13;;;;;;;;;;;;;;;6.67;100.00;98553.66;4883239;29;19962;-68
2022/01/03 13:51:44;;;;;;;;;;;;;;;6.40;100.00;98556.31;4883818;29;20371;-68
2022/01/03 13:54:22;;;;;;;;;;;;;;;6.08;100.00;98573.41;4890289;29;19963;-68
2022/01/03 13:56:49;;;;;;;;;;;;;;;6.04;100.00;98583.63;4895168;29;19969;-68
2022/01/03 13:59:17;;;;;;;;;;;;;;;5.54;100.00;98592.66;4883079;29;19956;-68
2022/01/03 14:01:46;;;;;;;;;;;;;;;5.43;100.00;98589.63;4892098;29;19956;-68
2022/01/03 14:04:14;;;;;;;;;;;;;;;5.34;100.00;98597.31;4895995;29;19959;-68
2022/01/03 14:06:41;;;;;;;;;;;;;;;4.95;100.00;98603.75;4890340;29;19976;-68
2022/01/03 14:09:13;;;;;;;;;;;;;;;4.90;100.00;98607.59;4888138;29;19953;-68
2022/01/03 14:11:45;;;;;;;;;;;;;;;4.66;100.00;98613.22;4885277;29;19958;-68
2022/01/03 14:14:14;;;;;;;;;;;;;;;4.62;100.00;98610.34;4898511;29;19971;-68
2022/01/03 14:17:00;;;;;;;;;;;;;;;4.64;100.00;98624.69;4899339;29;19974;-68
2022/01/03 14:19:28;;;;;;;;;;;;;;;4.57;100.00;98618.13;4880793;29;20591;-68
2022/01/03 14:21:56;;;;;;;;;;;;;;;4.40;100.00;98618.41;4886848;29;20392;-67
2022/01/03 14:24:25;;;;;;;;;;;;;;;4.44;100.00;98620.13;4896867;29;20241;-68
2022/01/03 14:26:56;;;;;;;;;;;;;;;4.55;100.00;98620.41;4897621;29;20348;-68
2022/01/03 14:29:35;;;;;;;;;;;;;;;4.52;100.00;98616.38;4887918;29;19963;-68
2022/01/03 14:32:12;;;;;;;;;;;;;;;4.56;100.00;98617.31;4895275;29;19963;-68
2022/01/03 14:34:50;;;;;;;;;;;;;;;4.45;100.00;98620.91;4881195;29;19962;-68
2022/01/03 14:37:32;;;;;;;;;;;;;;;4.37;100.00;98614.38;4880960;29;20034;-68
2022/01/03 14:40:02;;;;;;;;;;;;;;;4.50;100.00;98615.94;4885211;29;19957;-68
2022/01/03 14:42:34;;;;;;;;;;;;;;;4.48;100.00;98612.72;4901967;29;20260;-68
2022/01/03 14:45:21;;;;;;;;;;;;;;;4.47;100.00;98605.56;4897767;29;19957;-68
2022/01/03 14:47:58;;;;;;;;;;;;;;;4.43;100.00;98601.88;4880049;29;19956;-68
2022/01/03 14:50:25;;;;;;;;;;;;;;;4.48;100.00;98593.31;4880407;29;19965;-68
2022/01/03 14:52:55;;;;;;;;;;;;;;;4.52;100.00;98585.91;4885979;29;19949;-68
2022/01/03 14:55:49;;;;;;;;;;;;;;;4.59;100.00;98575.06;4896233;29;19957;-68
2022/01/03 14:58:20;;;;;;;;;;;;;;;4.77;100.00;98574.78;4886996;29;19966;-68
2022/01/03 15:00:48;;;;;;;;;;;;;;;4.79;100.00;98581.56;4898070;29;19951;-68
2022/01/03 15:03:15;;;;;;;;;;;;;;;4.86;100.00;98575.41;4881887;29;19968;-68
2022/01/03 15:05:45;;;;;;;;;;;;;;;4.80;100.00;98563.78;4871497;29;19971;-68
2022/01/03 15:08:13;;;;;;;;;;;;;;;4.82;100.00;98571.75;4865343;29;19965;-68
2022/01/03 15:10:40;;;;;;;;;;;;;;;4.86;100.00;98567.09;4862462;29;19965;-68
2022/01/03 15:13:14;;;;;;;;;;;;;;;4.69;100.00;98561.88;4865163;29;19961;-68
2022/01/03 15:15:43;;;;;;;;;;;;;;;4.64;100.00;98566.50;4866205;29;19956;-68
2022/01/03 15:18:10;;;;;;;;;;;;;;;4.66;100.00;98566.16;4866448;29;19987;-68
2022/01/03 15:20:37;;;;;;;;;;;;;;;4.71;100.00;98560.34;4869144;29;19959;-68
2022/01/03 15:23:05;;;;;;;;;;;;;;;4.77;100.00;98572.00;4859843;29;20376;-68
2022/01/03 15:25:32;;;;;;;;;;;;;;;4.65;100.00;98561.75;4850798;29;19962;-68
2022/01/03 15:28:00;;;;;;;;;;;;;;;4.65;100.00;98547.91;4859575;29;19971;-68
2022/01/03 15:30:33;;;;;;;;;;;;;;;4.57;100.00;98546.91;4865136;29;19957;-68
2022/01/03 15:33:13;;;;;;;;;;;;;;;4.44;100.00;98553.66;4872759;29;19956;-68
2022/01/03 15:35:41;;;;;;;;;;;;;;;4.44;100.00;98552.84;4878868;29;20353;-68
2022/01/03 15:38:08;;;;;;;;;;;;;;;4.46;100.00;98561.59;4859155;29;19973;-68
2022/01/03 15:40:35;;;;;;;;;;;;;;;4.42;100.00;98574.53;4868558;29;19949;-67
2022/01/03 15:43:02;;;;;;;;;;;;;;;4.40;100.00;98588.72;4863262;29;19955;-68
2022/01/03 15:45:30;;;;;;;;;;;;;;;4.43;100.00;98601.06;4865749;29;20365;-68
2022/01/03 15:47:57;;;;;;;;;;;;;;;4.44;100.00;98602.69;4863256;29;19956;-68
2022/01/03 15:50:24;;;;;;;;;;;;;;;4.45;100.00;98604.31;4864128;29;19958;-68
2022/01/03 15:52:52;;;;;;;;;;;;;;;4.50;100.00;98610.38;4864673;29;19956;-68
2022/01/03 15:55:19;;;;;;;;;;;;;;;4.54;100.00;98602.19;4868627;29;19959;-68
2022/01/03 15:57:46;;;;;;;;;;;;;;;4.48;100.00;98609.13;4867928;29;20286;-68
2022/01/03 16:00:14;;;;;;;;;;;;;;;4.42;100.00;98608.59;4872316;29;19963;-68
2022/01/03 16:02:41;;;;;;;;;;;;;;;4.43;100.00;98618.50;4880081;29;19958;-68
2022/01/03 16:05:09;;;;;;;;;;;;;;;4.46;100.00;98617.78;4873302;29;19973;-68
2022/01/03 16:07:36;;;;;;;;;;;;;;;4.50;100.00;98613.16;4876112;29;19952;-67
2022/01/03 16:10:04;;;;;;;;;;;;;;;4.39;100.00;98617.59;4866340;29;20246;-68
2022/01/03 16:12:33;;;;;;;;;;;;;;;4.36;100.00;98623.00;4857471;29;20250;-68
2022/01/03 16:15:01;;;;;;;;;;;;;;;4.26;100.00;98629.81;4861208;29;19955;-68
2022/01/03 16:17:29;;;;;;;;;;;;;;;4.27;100.00;98636.97;4860532;29;19980;-68
2022/01/03 16:19:57;;;;;;;;;;;;;;;4.31;100.00;98620.47;4869294;29;19958;-68
2022/01/03 16:22:24;;;;;;;;;;;;;;;4.35;100.00;98608.34;4869729;29;19960;-68
2022/01/03 16:24:52;;;;;;;;;;;;;;;4.43;100.00;98598.28;4866245;29;19960;-68
2022/01/03 16:27:19;;;;;;;;;;;;;;;4.23;100.00;98596.50;4871665;29;19957;-68
2022/01/03 16:29:46;;;;;;;;;;;;;;;4.06;100.00;98608.63;4854863;29;19965;-68
2022/01/03 16:32:14;;;;;;;;;;;;;;;4.03;100.00;98594.69;4871467;29;19957;-68
2022/01/03 16:34:41;;;;;;;;;;;;;;;3.95;100.00;98586.19;4864582;29;19965;-68
2022/01/03 16:37:09;;;;;;;;;;;;;;;3.93;100.00;98579.38;4850230;29;19978;-68
2022/01/03 16:39:36;;;;;;;;;;;;;;;3.94;100.00;98572.66;4871150;29;19970;-68
2022/01/03 16:42:03;;;;;;;;;;;;;;;3.91;100.00;98568.63;4867851;29;19951;-68
2022/01/03 16:44:32;;;;;;;;;;;;;;;3.94;100.00;98562.41;4874936;29;19962;-68
2022/01/03 16:46:59;;;;;;;;;;;;;;;3.87;100.00;98578.81;4877043;29;20252;-69
2022/01/03 16:49:27;;;;;;;;;;;;;;;3.82;100.00;98586.50;4869453;29;19963;-68
2022/01/03 16:51:54;;;;;;;;;;;;;;;3.94;100.00;98578.22;4858739;29;19949;-68
2022/01/03 16:54:22;;;;;;;;;;;;;;;3.92;100.00;98575.00;4869733;29;19958;-68
2022/01/03 16:56:50;;;;;;;;;;;;;;;3.87;100.00;98561.38;4860629;29;19983;-68
2022/01/03 16:59:18;;;;;;;;;;;;;;;3.85;100.00;98556.22;4872114;29;19966;-68
2022/01/03 17:01:47;;;;;;;;;;;;;;;3.75;100.00;98548.38;4864761;29;19959;-67
2022/01/03 17:04:14;;;;;;;;;;;;;;;3.77;100.00;98535.00;4864204;29;19963;-67
2022/01/03 17:06:41;;;;;;;;;;;;;;;3.75;100.00;98531.78;4896804;29;19981;-68
2022/01/03 17:09:09;;;;;;;;;;;;;;;3.79;100.00;98515.31;4883352;29;19965;-68
2022/01/03 17:11:38;;;;;;;;;;;;;;;3.82;100.00;98515.41;4882593;29;20529;-68
2022/01/03 17:14:05;;;;;;;;;;;;;;;3.75;100.00;98506.91;4883821;29;19954;-68
2022/01/03 17:16:32;;;;;;;;;;;;;;;3.76;100.00;98497.47;4896475;29;19953;-68
2022/01/03 17:19:00;;;;;;;;;;;;;;;3.79;100.00;98495.97;4893325;29;19965;-68
2022/01/03 17:21:27;;;;;;;;;;;;;;;3.69;100.00;98510.25;4883644;29;20656;-67
2022/01/03 17:23:55;;;;;;;;;;;;;;;3.79;100.00;98516.09;4892074;29;19949;-68
2022/01/03 17:26:24;;;;;;;;;;;;;;;3.76;100.00;98516.00;4877200;29;19953;-68
2022/01/03 17:28:52;;;;;;;;;;;;;;;3.87;100.00;98530.97;4881791;29;19959;-68
2022/01/03 17:31:21;;;;;;;;;;;;;;;3.95;100.00;98541.09;5119847;23;20873;-67
2022/01/03 17:33:48;;;;;;;;;;;;;;;3.97;100.00;98544.31;4924891;29;19967;-69
2022/01/03 17:36:17;;;;;;;;;;;;;;;4.09;100.00;98552.59;4918841;29;20247;-78
2022/01/03 17:38:46;;;;;;;;;;;;;;;4.25;100.00;98556.25;4899647;29;19967;-70
2022/01/03 17:41:14;;;;;;;;;;;;;;;4.36;100.00;98551.84;4915295;29;19958;-71
2022/01/03 17:43:43;;;;;;;;;;;;;;;4.52;100.00;98549.13;5152274;24;20381;-70
2022/01/03 17:46:11;;;;;;;;;;;;;;;4.62;100.00;98549.41;4914642;29;19955;-69
2022/01/03 17:48:39;;;;;;;;;;;;;;;4.71;100.00;98546.50;4916960;29;19952;-69
2022/01/03 17:51:08;;;;;;;;;;;;;;;4.74;100.00;98545.81;4914158;29;20371;-69
2022/01/03 17:53:36;;;;;;;;;;;;;;;4.65;100.00;98528.53;4915683;29;19961;-68
2022/01/03 17:56:03;;;;;;;;;;;;;;;4.43;100.00;98521.59;4920169;29;20372;-71
2022/01/03 17:58:35;;;;;;;;;;;;;;;4.33;100.00;98518.50;4921557;29;19977;-69
2022/01/03 18:01:03;;;;;;;;;;;;;;;4.36;100.00;98518.63;4920877;29;20030;-69
2022/01/03 18:03:31;;;;;;;;;;;;;;;4.44;100.00;98523.19;4914620;29;19961;-69
2022/01/03 18:06:00;;;;;;;;;;;;;;;4.60;100.00;98526.81;4919698;29;19952;-69
2022/01/03 18:08:27;;;;;;;;;;;;;;;4.72;100.00;98530.69;4914756;29;19962;-69
2022/01/03 18:10:54;;;;;;;;;;;;;;;4.69;100.00;98536.94;4916628;29;19948;-70
2022/01/03 18:13:23;;;;;;;;;;;;;;;4.50;100.00;98548.66;4918767;29;20013;-69
2022/01/03 18:15:51;;;;;;;;;;;;;;;4.33;100.00;98552.53;4914837;29;19963;-69
2022/01/03 18:18:18;;;;;;;;;;;;;;;4.10;100.00;98548.69;4911528;29;19962;-69
2022/01/03 18:20:46;;;;;;;;;;;;;;;4.07;100.00;98551.31;4911845;29;19946;-69
2022/01/03 18:23:14;;;;;;;;;;;;;;;4.08;100.00;98556.53;4915619;29;19966;-68
2022/01/03 18:25:43;;;;;;;;;;;;;;;4.07;100.00;98554.09;4916346;29;19955;-68
2022/01/03 18:28:14;;;;;;;;;;;;;;;4.06;100.00;98552.50;4912597;29;19978;-70
2022/01/03 18:30:41;;;;;;;;;;;;;;;4.11;100.00;98550.28;4918412;29;20433;-71
2022/01/03 18:33:15;;;;;;;;;;;;;;;4.13;100.00;98567.38;4913338;29;19973;-69
2022/01/03 18:35:43;;;;;;;;;;;;;;;4.17;100.00;98575.75;4915083;29;20379;-73
2022/01/03 18:38:12;;;;;;;;;;;;;;;4.15;100.00;98576.13;4916259;29;19950;-71
2022/01/03 18:40:40;;;;;;;;;;;;;;;4.18;100.00;98583.69;4921551;29;19993;-73
2022/01/03 18:43:09;;;;;;;;;;;;;;;4.17;100.00;98578.53;4905451;29;19976;-71
2022/01/03 18:45:37;;;;;;;;;;;;;;;4.10;100.00;98581.06;4913959;29;19963;-72
2022/01/03 18:48:07;;;;;;;;;;;;;;;4.03;100.00;98592.75;4915061;29;19975;-72
2022/01/03 18:50:35;;;;;;;;;;;;;;;4.10;100.00;98575.53;4914014;29;19961;-72
2022/01/03 18:53:03;;;;;;;;;;;;;;;3.94;100.00;98572.66;4915796;29;19969;-72
2022/01/03 18:55:31;;;;;;;;;;;;;;;4.03;100.00;98569.78;4921961;29;19956;-71
2022/01/03 18:57:58;;;;;;;;;;;;;;;4.10;100.00;98564.47;4921902;29;19947;-71
2022/01/03 19:00:28;;;;;;;;;;;;;;;4.10;100.00;98561.72;4914687;29;19984;-70
2022/01/03 19:02:55;;;;;;;;;;;;;;;3.99;100.00;98548.34;4918571;29;19952;-70
2022/01/03 19:05:24;;;;;;;;;;;;;;;4.01;100.00;98553.53;4916928;29;19962;-71
2022/01/03 19:07:51;;;;;;;;;;;;;;;4.10;100.00;98564.47;4918104;29;19971;-71
2022/01/03 19:10:19;;;;;;;;;;;;;;;4.05;100.00;98556.41;4917421;29;20349;-71
2022/01/03 19:12:47;;;;;;;;;;;;;;;4.09;100.00;98560.91;4912212;29;19970;-71
2022/01/03 19:15:14;;;;;;;;;;;;;;;4.13;100.00;98555.47;4919511;29;20041;-71
2022/01/03 19:17:41;;;;;;;;;;;;;;;4.11;100.00;98555.81;4919590;29;19955;-71
2022/01/03 19:20:10;;;;;;;;;;;;;;;4.00;100.00;98565.75;4912316;29;19963;-70
2022/01/03 19:22:38;;;;;;;;;;;;;;;3.91;100.00;98554.03;4921057;29;19956;-70
2022/01/03 19:25:05;;;;;;;;;;;;;;;3.86;100.00;98549.50;4919814;29;19951;-71
2022/01/03 19:27:33;;;;;;;;;;;;;;;3.90;100.00;98544.91;4918442;29;20233;-71
2022/01/03 19:30:03;;;;;;;;;;;;;;;3.89;100.00;98542.47;4915519;29;19981;-71
2022/01/03 19:38:13;;;;;;;;;;;;;;;3.81;100.00;98524.06;4918252;29;19954;-70
2022/01/03 19:40:40;;;;;;;;;;;;;;;3.82;100.00;98526.47;4914969;29;19955;-70
2022/01/03 19:43:08;;;;;;;;;;;;;;;3.85;100.00;98522.22;4914822;29;19983;-71
2022/01/03 19:45:37;;;;;;;;;;;;;;;3.94;100.00;98531.19;4917207;29;20353;-71
2022/01/03 19:48:04;;;;;;;;;;;;;;;4.01;100.00;98539.69;4918153;29;20554;-71
2022/01/03 19:50:31;;;;;;;;;;;;;;;4.05;100.00;98528.75;4917603;29;19963;-72
2022/01/03 19:53:00;;;;;;;;;;;;;;;4.10;100.00;98529.31;4882906;29;19955;-70
2022/01/03 19:55:28;;;;;;;;;;;;;;;4.12;100.00;98540.03;4916824;29;20409;-71
2022/01/03 19:57:55;;;;;;;;;;;;;;;4.17;100.00;98526.75;4911762;29;19965;-70
2022/01/03 20:00:23;;;;;;;;;;;;;;;4.14;100.00;98521.91;4886271;29;19958;-71
2022/01/03 20:02:50;;;;;;;;;;;;;;;4.19;100.00;98513.38;4912643;29;20356;-71
2022/01/03 20:05:18;;;;;;;;;;;;;;;4.15;100.00;98504.16;4914590;29;19950;-68
2022/01/03 20:07:47;;;;;;;;;;;;;;;4.17;100.00;98504.63;4916040;29;19960;-69
2022/01/03 20:10:19;;;;;;;;;;;;;;;4.18;100.00;98492.38;4917142;29;19960;-69
2022/01/03 20:12:46;;;;;;;;;;;;;;;4.21;100.00;98486.13;4909758;29;20248;-71
2022/01/03 20:15:14;;;;;;;;;;;;;;;4.35;100.00;98469.94;4912165;29;19961;-70
2022/01/03 20:17:42;;;;;;;;;;;;;;;4.38;100.00;98479.50;4913468;29;19954;-70
2022/01/03 20:20:10;;;;;;;;;;;;;;;4.55;100.00;98476.41;4915292;29;19958;-71
2022/01/03 20:22:47;;;;;;;;;;;;;;;4.75;100.00;98482.88;4912840;29;19962;-69
2022/01/03 20:25:14;;;;;;;;;;;;;;;4.84;100.00;98478.00;4916172;29;19952;-70
2022/01/03 20:27:42;;;;;;;;;;;;;;;4.85;100.00;98477.63;4918011;29;19962;-69
2022/01/03 20:30:11;;;;;;;;;;;;;;;4.86;100.00;98470.13;4917507;29;20257;-69
2022/01/03 20:32:39;;;;;;;;;;;;;;;4.80;100.00;98460.47;4915497;29;19955;-68
2022/01/03 20:35:08;;;;;;;;;;;;;;;4.60;100.00;98443.72;4914928;29;19995;-69